Portada
METAR-TAF:

METAR-TAF

Aeropuertos :

Aeropuerto Internacional Mitiga

Trípoli, Libia

latitud: 32-54N, longitud: 13-17E, altitud: 11 m

METAR: falta

Hora: 13:08 (11:08 UTC)

Pronóstico

El informe se hizo hace 6 horas y 8 minutos, a las 05:00 UTC
Pronóstico válido del 24 a las 06 UTC al 25 a las 06 UTC
Viento 15 kt del este
Visibilidad: 8000 m
Evolucionando progresivamente
del 24 a las 12 UTC al 24 a las 14 UTC
Viento 15 kt del este con ráfagas de 25 kt
Probabilidad 40% :
Temporalmente
del 24 a las 12 UTC al 24 a las 18 UTC
Visibilidad: 3000 m
Ventisca alta de arena
Evolucionando progresivamente
del 25 a las 03 UTC al 25 a las 05 UTC
Viento 10 kt del oeste

TAF: HLLM 240500Z 2406/2506 09015KT 8000 NSC BECMG 2412/2414 10015G25KT PROB40 TEMPO 2412/2418 3000 BLSA BECMG 2503/2505 27010KT

Observaciones y pronósticos meteorológicos de más de 4000 aeropuertos (mensajes METAR y TAF).

Los puntos amarillos y rojos representan las estaciones disponibles.

Ponga el ratón en el punto deseado para ver el nombre de la estación.

Haga clic para ver las observaciones y los pronósticos meteorológicos.

Para cambiar el mapa : haga clic en los botones verdes con una cruz de color negro para hacer un zoom, en el botón verde con un guión para alejar o en las flechas verdes para mapas adyacentes.


METAR-TAF: